createdAt,value
2023-04-24T06:07:13.242Z,36.70
2023-04-24T06:09:42.892Z,36.70
2023-04-24T06:12:11.360Z,35.95
2023-04-24T06:14:40.728Z,37.00
2023-04-24T06:17:11.092Z,35.63
2023-04-24T06:19:41.905Z,35.62
2023-04-24T06:22:10.995Z,34.64
2023-04-24T06:24:39.391Z,34.05
2023-04-24T06:27:07.623Z,31.95
2023-04-24T06:29:37.996Z,34.38
2023-04-24T06:32:06.345Z,32.67
2023-04-24T06:34:35.365Z,32.48
2023-04-24T06:37:03.934Z,31.93
2023-04-24T06:39:32.079Z,33.63
2023-04-24T06:42:00.245Z,32.58
2023-04-24T06:44:28.573Z,31.24
2023-04-24T06:47:06.286Z,25.82
2023-04-24T06:49:34.883Z,31.95
2023-04-24T06:52:02.700Z,31.73
2023-04-24T06:54:31.428Z,31.98
2023-04-24T06:57:01.971Z,31.82
2023-04-24T06:59:30.250Z,29.90
2023-04-24T07:01:58.212Z,30.14
2023-04-24T07:04:26.846Z,24.37
2023-04-24T07:06:59.127Z,32.65
2023-04-24T07:09:27.818Z,31.55
2023-04-24T07:11:57.774Z,32.33
2023-04-24T07:14:25.689Z,32.33
2023-04-24T07:16:53.989Z,30.43
2023-04-24T07:19:21.997Z,30.32
2023-04-24T07:22:03.324Z,28.37
2023-04-24T07:24:33.729Z,28.18
2023-04-24T07:27:04.824Z,33.15
2023-04-24T07:29:32.959Z,30.06
2023-04-24T07:32:02.680Z,23.38
2023-04-24T07:34:31.848Z,34.34
2023-04-24T07:37:00.368Z,21.71
2023-04-24T07:39:29.153Z,33.64
2023-04-24T07:41:57.233Z,24.42
2023-04-24T07:44:25.639Z,31.21
2023-04-24T07:46:53.760Z,29.55
2023-04-24T07:49:21.827Z,25.99
2023-04-24T07:51:51.562Z,20.86
2023-04-24T07:54:19.442Z,28.80
2023-04-24T07:56:47.388Z,19.96
2023-04-24T07:59:15.739Z,24.13
2023-04-24T08:01:43.765Z,28.16
2023-04-24T08:04:12.160Z,19.91
2023-04-24T08:06:40.180Z,29.95
2023-04-24T08:09:08.878Z,26.72
2023-04-24T08:11:37.186Z,28.77
2023-04-24T08:14:05.029Z,19.68
2023-04-24T08:16:34.960Z,18.21
2023-04-24T08:19:15.508Z,24.45
2023-04-24T08:21:43.518Z,24.58
2023-04-24T08:24:11.699Z,19.47
2023-04-24T08:26:39.634Z,23.63
2023-04-24T08:29:08.106Z,18.50
2023-04-24T08:31:37.007Z,18.23
2023-04-24T08:34:04.997Z,21.30
2023-04-24T08:36:43.919Z,19.38
2023-04-24T08:39:27.830Z,18.81
2023-04-24T08:41:57.128Z,25.75
2023-04-24T08:44:25.398Z,17.37
2023-04-24T08:46:55.378Z,26.10
2023-04-24T08:49:27.225Z,22.60
2023-04-24T08:51:56.121Z,24.61
2023-04-24T08:54:24.828Z,24.29
2023-04-24T08:57:00.139Z,20.46
2023-04-24T08:59:29.789Z,17.73
2023-04-24T09:01:58.789Z,16.05
2023-04-24T09:04:27.378Z,17.86
2023-04-24T09:06:58.253Z,22.78
2023-04-24T09:09:26.985Z,17.55
2023-04-24T09:11:56.838Z,19.35
2023-04-24T09:14:25.648Z,22.24
2023-04-24T09:16:53.882Z,19.42
2023-04-24T09:19:23.716Z,22.67
2023-04-24T09:21:54.436Z,29.46
2023-04-24T09:24:26.111Z,23.29
2023-04-24T09:27:00.260Z,18.06
2023-04-24T09:29:29.616Z,22.55
2023-04-24T09:31:57.600Z,19.05
2023-04-24T09:34:27.510Z,18.75
2023-04-24T09:36:56.540Z,19.40
2023-04-24T09:39:24.573Z,18.60
2023-04-24T09:41:55.060Z,19.54
2023-04-24T09:44:25.679Z,18.61
2023-04-24T09:46:56.240Z,16.44
2023-04-24T09:49:31.614Z,25.45
2023-04-24T09:52:08.244Z,22.45
2023-04-24T09:54:38.210Z,18.93
2023-04-24T09:57:08.855Z,19.94
2023-04-24T09:59:44.638Z,17.51
2023-04-24T10:02:22.405Z,20.77
2023-04-24T10:05:01.053Z,24.29
2023-04-24T10:07:34.690Z,21.28
2023-04-24T10:10:03.083Z,23.48
2023-04-24T10:12:32.303Z,15.59
2023-04-24T10:15:00.808Z,16.67
2023-04-24T10:17:32.734Z,21.84
2023-04-24T10:20:03.175Z,15.89
2023-04-24T10:22:33.665Z,20.36
2023-04-24T10:25:01.762Z,16.87
2023-04-24T10:27:32.409Z,16.72
2023-04-24T10:30:03.126Z,17.70
2023-04-24T10:32:32.513Z,20.51
2023-04-24T10:35:01.362Z,17.75
2023-04-24T10:37:41.701Z,14.92
2023-04-24T10:40:11.294Z,17.37
2023-04-24T10:42:44.070Z,17.84
2023-04-24T10:45:20.329Z,20.18
2023-04-24T10:47:57.875Z,20.12
2023-04-24T10:50:28.905Z,14.96
2023-04-24T10:53:07.794Z,17.83
2023-04-24T10:56:00.929Z,16.20
2023-04-24T10:58:42.001Z,26.03
2023-04-24T11:01:10.469Z,17.91
2023-04-24T11:03:39.040Z,23.31
2023-04-24T11:06:09.295Z,18.62
2023-04-24T11:08:45.421Z,18.83
2023-04-24T11:11:19.658Z,23.55
2023-04-24T11:13:57.202Z,17.74
2023-04-24T11:16:39.816Z,15.92
2023-04-24T11:19:16.586Z,16.40
2023-04-24T11:21:54.419Z,17.85
2023-04-24T11:24:48.803Z,21.29
2023-04-24T11:27:21.161Z,16.01
2023-04-24T11:29:58.924Z,18.49
2023-04-24T11:32:28.818Z,17.41
2023-04-24T11:35:00.827Z,18.49
2023-04-24T11:37:42.196Z,14.99
2023-04-24T11:40:13.893Z,15.24
2023-04-24T11:42:46.252Z,16.24
2023-04-24T11:45:23.852Z,15.37
2023-04-24T11:47:52.677Z,16.17
2023-04-24T11:50:24.435Z,16.44
2023-04-24T11:52:52.497Z,18.79
2023-04-24T11:55:20.607Z,19.55
2023-04-24T11:57:51.814Z,18.23
2023-04-24T12:00:25.518Z,17.78
2023-04-24T12:03:07.946Z,18.12
2023-04-24T12:05:36.497Z,17.54
2023-04-24T12:08:06.291Z,23.33
2023-04-24T12:10:36.049Z,17.58
2023-04-24T12:13:04.595Z,19.74
2023-04-24T12:15:33.007Z,19.01
2023-04-24T12:18:00.994Z,21.39
2023-04-24T12:20:32.288Z,22.19
2023-04-24T12:23:02.491Z,26.49
2023-04-24T12:25:33.654Z,24.97
2023-04-24T12:28:04.494Z,20.70
2023-04-24T12:30:40.015Z,20.32
2023-04-24T12:33:10.912Z,24.46
2023-04-24T12:35:42.411Z,18.41
2023-04-24T12:38:15.185Z,21.83
2023-04-24T12:40:45.071Z,17.55
2023-04-24T12:43:22.347Z,15.80
2023-04-24T12:45:50.676Z,16.73
2023-04-24T12:48:18.753Z,13.16
2023-04-24T12:50:48.360Z,13.22
2023-04-24T12:53:17.515Z,12.76
2023-04-24T12:55:46.362Z,14.73
2023-04-24T12:58:14.999Z,14.96
2023-04-24T13:00:44.875Z,14.52
2023-04-24T13:03:13.727Z,13.83
2023-04-24T13:05:42.004Z,13.04
2023-04-24T13:08:10.581Z,12.52
2023-04-24T13:10:42.095Z,12.78
2023-04-24T13:13:10.385Z,13.18
2023-04-24T13:15:38.439Z,14.04
2023-04-24T13:18:06.464Z,15.13
2023-04-24T13:20:36.820Z,15.89
2023-04-24T13:23:07.965Z,16.64
2023-04-24T13:25:38.710Z,14.99
2023-04-24T13:28:06.877Z,15.29
2023-04-24T13:30:34.897Z,14.15
2023-04-24T13:33:03.365Z,13.28
2023-04-24T13:35:31.429Z,13.35
2023-04-24T13:38:02.877Z,13.15
2023-04-24T13:40:31.585Z,13.92
2023-04-24T13:42:59.666Z,15.88
2023-04-24T13:45:28.028Z,12.91
2023-04-24T13:47:56.442Z,12.44
2023-04-24T13:50:27.593Z,14.55
2023-04-24T13:52:55.571Z,14.16
2023-04-24T13:55:24.860Z,12.77
2023-04-24T13:57:56.807Z,12.25
2023-04-24T14:00:25.263Z,12.76
2023-04-24T14:02:53.769Z,12.93
2023-04-24T14:05:23.335Z,12.82
2023-04-24T14:07:57.589Z,13.01
2023-04-24T14:10:26.989Z,15.13
2023-04-24T14:12:55.004Z,13.59
2023-04-24T14:15:23.248Z,14.34
2023-04-24T14:17:51.577Z,13.51
2023-04-24T14:20:19.539Z,13.42
2023-04-24T14:22:47.523Z,13.54
2023-04-24T14:25:16.807Z,13.52
2023-04-24T14:27:45.246Z,14.21
2023-04-24T14:30:14.821Z,14.61
2023-04-24T14:32:43.452Z,17.09
2023-04-24T14:35:11.730Z,20.51
2023-04-24T14:37:42.439Z,21.09
2023-04-24T14:40:31.974Z,21.50
2023-04-24T14:43:00.148Z,22.55
2023-04-24T14:45:32.316Z,24.16
2023-04-24T14:48:00.739Z,21.72
2023-04-24T14:50:29.741Z,20.21
2023-04-24T14:52:58.905Z,18.75
2023-04-24T14:55:27.692Z,18.04
2023-04-24T14:57:56.463Z,17.37
2023-04-24T15:00:27.346Z,17.09
2023-04-24T15:02:57.038Z,16.69
2023-04-24T15:05:26.630Z,16.63
2023-04-24T15:07:54.877Z,16.30
2023-04-24T15:10:25.158Z,16.33
2023-04-24T15:12:53.553Z,16.44
2023-04-24T15:15:21.673Z,16.53
2023-04-24T15:17:49.926Z,16.87
2023-04-24T15:20:19.354Z,16.80
2023-04-24T15:22:47.252Z,16.94
2023-04-24T15:25:15.611Z,17.03
2023-04-24T15:27:47.314Z,17.36
2023-04-24T15:30:16.033Z,17.32
2023-04-24T15:32:47.101Z,17.50
2023-04-24T15:35:16.061Z,17.61
2023-04-24T15:37:44.450Z,17.80
2023-04-24T15:40:14.672Z,17.98
2023-04-24T15:42:47.139Z,18.25
2023-04-24T15:45:15.539Z,18.22
2023-04-24T15:47:47.421Z,18.76
2023-04-24T15:50:17.609Z,19.26
2023-04-24T15:52:46.240Z,19.74
2023-04-24T15:55:14.346Z,21.41
2023-04-24T15:57:43.789Z,21.01
2023-04-24T16:00:12.901Z,21.13
2023-04-24T16:02:42.071Z,21.30
2023-04-24T16:05:11.532Z,20.98
2023-04-24T16:07:40.728Z,20.98
2023-04-24T16:10:10.315Z,21.53
2023-04-24T16:12:38.450Z,21.60
2023-04-24T16:15:07.736Z,22.65
2023-04-24T16:17:36.195Z,25.01
2023-04-24T16:20:05.687Z,24.40
2023-04-24T16:22:34.055Z,25.61
2023-04-24T16:25:02.607Z,26.11
2023-04-24T16:27:32.220Z,26.50
2023-04-24T16:30:00.461Z,27.58
2023-04-24T16:32:29.184Z,27.57
2023-04-24T16:34:57.361Z,28.62
2023-04-24T16:37:25.329Z,28.81
2023-04-24T16:39:55.408Z,29.56
2023-04-24T16:42:23.711Z,30.06
2023-04-24T16:44:52.066Z,30.14
2023-04-24T16:47:20.829Z,29.97
2023-04-24T16:49:50.051Z,30.42
2023-04-24T16:52:18.284Z,30.82
2023-04-24T16:54:46.947Z,30.80
2023-04-24T16:57:18.230Z,31.04
2023-04-24T16:59:46.860Z,30.88
2023-04-24T17:02:15.306Z,31.41
2023-04-24T17:04:43.475Z,31.25
2023-04-24T17:07:12.256Z,32.07
2023-04-24T17:09:41.309Z,32.18
2023-04-24T17:12:11.362Z,32.51
2023-04-24T17:14:39.994Z,32.82
2023-04-24T17:17:08.375Z,32.90
2023-04-24T17:19:36.452Z,32.85
2023-04-24T17:22:06.070Z,32.94
2023-04-24T17:24:34.627Z,32.96
2023-04-24T17:27:13.957Z,33.72
2023-04-24T17:29:43.979Z,34.12
2023-04-24T17:32:15.248Z,34.49
2023-04-24T17:34:43.863Z,35.28
2023-04-24T17:37:12.001Z,34.92
2023-04-24T17:39:39.983Z,34.84
2023-04-24T17:42:08.231Z,35.82
2023-04-24T17:44:36.215Z,35.42
2023-04-24T17:47:05.200Z,36.57
2023-04-24T17:49:33.739Z,40.65
2023-04-24T17:52:01.771Z,39.52
2023-04-24T17:54:29.729Z,37.55
2023-04-24T17:56:59.274Z,35.78
2023-04-24T17:59:27.623Z,35.96
2023-04-24T18:01:56.038Z,35.91
2023-04-24T18:04:26.700Z,36.39
2023-04-24T18:06:55.195Z,36.40
2023-04-24T18:09:23.620Z,36.96
2023-04-24T18:11:52.118Z,36.95
2023-04-24T18:14:20.202Z,37.10
2023-04-24T18:16:48.642Z,36.88
2023-04-24T18:19:22.933Z,39.39
2023-04-24T18:21:51.362Z,38.79
2023-04-24T18:24:22.765Z,38.10
2023-04-24T18:26:50.926Z,38.45
2023-04-24T18:29:18.986Z,37.35
2023-04-24T18:31:48.515Z,36.72
2023-04-24T18:34:16.798Z,36.51
2023-04-24T18:36:44.966Z,36.77
2023-04-24T18:39:14.368Z,36.84
2023-04-24T18:41:43.192Z,36.51
2023-04-24T18:44:12.243Z,36.67
2023-04-24T18:46:41.988Z,36.46
2023-04-24T18:49:10.639Z,36.40
2023-04-24T18:51:52.534Z,36.04
2023-04-24T18:54:22.614Z,36.28
2023-04-24T18:56:51.852Z,36.08
2023-04-24T18:59:21.743Z,36.49
2023-04-24T19:01:50.435Z,36.25
2023-04-24T19:04:21.072Z,36.11
2023-04-24T19:06:49.777Z,35.99
2023-04-24T19:09:17.927Z,36.26
2023-04-24T19:11:46.386Z,36.11
2023-04-24T19:14:16.768Z,36.36
2023-04-24T19:16:45.113Z,36.75
2023-04-24T19:19:13.467Z,37.07
2023-04-24T19:21:42.082Z,36.82
2023-04-24T19:24:11.326Z,36.68
2023-04-24T19:26:39.606Z,37.18
2023-04-24T19:29:08.219Z,37.23
2023-04-24T19:31:36.733Z,37.78
2023-04-24T19:34:05.122Z,37.83
2023-04-24T19:36:34.154Z,37.85
2023-04-24T19:39:02.209Z,37.53
2023-04-24T19:41:30.747Z,37.57
2023-04-24T19:43:59.303Z,39.03
2023-04-24T19:46:27.646Z,39.95
2023-04-24T19:48:55.898Z,39.29
2023-04-24T19:51:24.456Z,38.63
2023-04-24T19:53:53.012Z,38.51
2023-04-24T19:56:21.339Z,38.30
2023-04-24T19:58:50.094Z,38.16
2023-04-24T20:01:18.686Z,37.93
2023-04-24T20:03:47.205Z,37.96
2023-04-24T20:06:15.448Z,37.96
2023-04-24T20:08:43.602Z,38.53
2023-04-24T20:11:12.037Z,38.82
2023-04-24T20:13:40.089Z,40.88
2023-04-24T20:16:10.922Z,39.44
2023-04-24T20:18:39.953Z,39.79
2023-04-24T20:21:09.102Z,40.09
2023-04-24T20:23:37.174Z,41.03
2023-04-24T20:26:05.672Z,41.05
2023-04-24T20:28:33.662Z,41.02
2023-04-24T20:31:01.799Z,41.91
2023-04-24T20:33:31.112Z,40.86
2023-04-24T20:35:59.076Z,40.09
2023-04-24T20:38:27.007Z,39.92
2023-04-24T20:40:58.192Z,39.81
2023-04-24T20:43:29.862Z,39.82
2023-04-24T20:45:58.560Z,40.05
2023-04-24T20:48:27.245Z,40.22
2023-04-24T20:50:56.290Z,40.32
2023-04-24T20:53:25.115Z,40.24
2023-04-24T20:55:53.221Z,40.46
2023-04-24T20:58:23.249Z,40.70
2023-04-24T21:00:55.246Z,40.63
2023-04-24T21:03:30.872Z,40.82
2023-04-24T21:05:59.553Z,40.88
2023-04-24T21:08:27.532Z,40.63
2023-04-24T21:10:55.558Z,40.64
2023-04-24T21:13:24.260Z,40.67
2023-04-24T21:15:52.390Z,40.92
2023-04-24T21:18:20.368Z,40.89
2023-04-24T21:20:50.208Z,41.34
2023-04-24T21:23:18.183Z,41.69
2023-04-24T21:25:46.371Z,41.75
2023-04-24T21:28:14.937Z,41.89
2023-04-24T21:30:43.092Z,41.97
2023-04-24T21:33:12.696Z,42.07
2023-04-24T21:35:41.650Z,42.89
2023-04-24T21:38:09.820Z,42.62
2023-04-24T21:40:37.679Z,42.84
2023-04-24T21:43:06.211Z,43.21
2023-04-24T21:45:34.164Z,42.93
2023-04-24T21:48:02.339Z,42.55
2023-04-24T21:50:31.010Z,43.18
2023-04-24T21:52:59.024Z,46.14
2023-04-24T21:55:27.448Z,43.00
2023-04-24T21:57:56.394Z,44.48
2023-04-24T22:00:25.142Z,44.46
2023-04-24T22:02:53.614Z,43.95
2023-04-24T22:05:21.678Z,43.51
2023-04-24T22:07:51.180Z,43.52
2023-04-24T22:10:19.466Z,44.14
2023-04-24T22:12:47.751Z,44.11
2023-04-24T22:15:15.809Z,44.03
2023-04-24T22:17:44.166Z,44.14
2023-04-24T22:20:13.244Z,43.80
2023-04-24T22:22:41.163Z,43.82
2023-04-24T22:25:09.903Z,43.10
2023-04-24T22:27:37.871Z,43.28
2023-04-24T22:30:06.597Z,43.69
2023-04-24T22:32:35.321Z,44.69
2023-04-24T22:35:03.478Z,43.54
2023-04-24T22:37:32.919Z,45.25
2023-04-24T22:40:01.674Z,43.46
2023-04-24T22:42:32.212Z,43.52
2023-04-24T22:45:00.217Z,44.92
2023-04-24T22:47:28.776Z,45.00
2023-04-24T22:49:58.116Z,43.68
2023-04-24T22:52:26.566Z,54.61
2023-04-24T22:54:54.856Z,44.94
2023-04-24T22:57:22.677Z,43.85
2023-04-24T22:59:50.608Z,53.22
2023-04-24T23:02:18.886Z,56.61
2023-04-24T23:04:46.908Z,48.92
2023-04-24T23:07:16.051Z,46.40
2023-04-24T23:09:44.166Z,44.95
2023-04-24T23:12:12.037Z,44.11
2023-04-24T23:14:40.020Z,44.87
2023-04-24T23:17:08.531Z,44.91
2023-04-24T23:19:36.483Z,44.30
2023-04-24T23:22:04.418Z,45.09
2023-04-24T23:24:32.919Z,44.21
2023-04-24T23:27:02.056Z,44.72
2023-04-24T23:29:30.031Z,45.21
2023-04-24T23:31:58.349Z,45.88
2023-04-24T23:34:26.320Z,45.38
2023-04-24T23:36:54.490Z,44.64
2023-04-24T23:39:22.707Z,44.78
2023-04-24T23:41:54.282Z,45.08
2023-04-24T23:44:22.535Z,44.87
2023-04-24T23:46:50.378Z,45.29
2023-04-24T23:49:18.313Z,45.37
2023-04-24T23:51:46.788Z,45.18
2023-04-24T23:54:14.766Z,45.49
2023-04-24T23:56:42.710Z,45.46
2023-04-24T23:59:10.985Z,45.68
